Time;durP1;ratioP1;P1;durP2;ratioP2;P2;SDS_P1;SDS_P2;PMS_P1;PMS_P2;Temp;Humidity;BMP_temperature;BMP_pressure;BME280_temperature;BME280_humidity;BME280_pressure;Samples;Min_cycle;Max_cycle;Signal;HPM_P1;HPM_P2
2022/06/11 00:00:32;;;;;;;6.45;4.05;;;18.60;99.90;;;;;;5074310;28;20680;-70
2022/06/11 00:02:59;;;;;;;6.15;4.82;;;18.60;99.90;;;;;;5073622;28;20201;-69
2022/06/11 00:05:26;;;;;;;5.10;4.35;;;18.60;99.90;;;;;;5073291;28;20558;-70
2022/06/11 00:07:53;;;;;;;4.30;3.90;;;18.60;99.90;;;;;;5074113;28;20205;-69
2022/06/11 00:10:20;;;;;;;4.88;4.00;;;18.50;99.90;;;;;;5085523;28;20222;-69
2022/06/11 00:12:47;;;;;;;4.90;4.15;;;18.40;99.90;;;;;;5075859;28;20213;-69
2022/06/11 00:15:14;;;;;;;6.10;4.17;;;18.40;99.90;;;;;;5081939;28;20229;-69
2022/06/11 00:17:42;;;;;;;3.92;3.63;;;18.40;99.90;;;;;;5081461;28;20215;-70
2022/06/11 00:20:10;;;;;;;4.32;3.83;;;18.30;99.90;;;;;;5081247;28;20205;-70
2022/06/11 00:22:37;;;;;;;5.30;3.65;;;18.30;99.90;;;;;;5074094;28;20262;-70
2022/06/11 00:25:05;;;;;;;4.32;3.92;;;18.30;99.90;;;;;;5073534;28;20209;-71
2022/06/11 00:27:32;;;;;;;4.53;4.13;;;18.20;99.90;;;;;;5073524;28;20584;-71
2022/06/11 00:29:59;;;;;;;3.97;3.58;;;18.20;99.90;;;;;;5074272;28;20233;-70
2022/06/11 00:32:26;;;;;;;3.83;3.43;;;18.20;99.90;;;;;;5086361;28;20197;-69
2022/06/11 00:34:58;;;;;;;3.83;3.45;;;18.20;99.90;;;;;;5073046;28;20225;-70
2022/06/11 00:37:25;;;;;;;3.80;3.50;;;18.10;99.90;;;;;;5073240;28;20201;-70
2022/06/11 00:39:52;;;;;;;3.50;3.20;;;18.10;99.90;;;;;;5073644;28;20205;-69
2022/06/11 00:42:24;;;;;;;4.10;3.53;;;18.10;99.90;;;;;;5073083;28;20216;-69
2022/06/11 00:45:13;;;;;;;4.30;3.90;;;18.10;99.90;;;;;;5073391;28;20201;-70
2022/06/11 00:47:40;;;;;;;4.40;3.60;;;18.10;99.90;;;;;;5072892;28;20544;-70
2022/06/11 00:50:20;;;;;;;3.30;3.00;;;18.00;99.90;;;;;;5089327;28;20582;-70
2022/06/11 00:52:48;;;;;;;3.15;2.85;;;18.00;99.90;;;;;;5074973;28;20217;-69
2022/06/11 00:55:21;;;;;;;3.90;3.15;;;18.00;99.90;;;;;;5073034;28;20592;-70
2022/06/11 00:57:52;;;;;;;3.58;3.25;;;18.00;99.90;;;;;;5072792;28;20205;-70
2022/06/11 01:00:22;;;;;;;4.63;3.65;;;17.90;99.90;;;;;;5072883;28;20201;-69
2022/06/11 01:02:49;;;;;;;4.97;3.30;;;17.90;99.90;;;;;;5073375;28;20210;-69
2022/06/11 01:05:21;;;;;;;4.20;3.00;;;17.80;99.90;;;;;;5084769;28;20215;-69
2022/06/11 01:08:15;;;;;;;4.30;3.50;;;17.80;99.90;;;;;;5074099;28;20201;-69
2022/06/11 01:11:02;;;;;;;4.55;2.95;;;17.80;99.90;;;;;;5073795;28;20213;-69
2022/06/11 01:13:35;;;;;;;3.20;2.90;;;17.80;99.90;;;;;;5073606;28;20630;-69
2022/06/11 01:16:05;;;;;;;6.97;3.70;;;17.70;99.90;;;;;;5086087;28;20247;-70
2022/06/11 01:18:43;;;;;;;3.20;2.90;;;17.70;99.90;;;;;;5074221;28;20658;-69
2022/06/11 01:21:22;;;;;;;7.55;2.95;;;17.70;99.90;;;;;;5080045;28;20220;-70
2022/06/11 01:24:17;;;;;;;3.30;3.00;;;17.60;99.90;;;;;;5073578;28;20204;-69
2022/06/11 01:27:24;;;;;;;5.53;3.58;;;17.60;99.90;;;;;;5072672;28;20205;-69
2022/06/11 01:29:55;;;;;;;3.55;3.25;;;17.50;99.90;;;;;;5078946;28;20228;-70
2022/06/11 01:32:46;;;;;;;3.28;2.80;;;17.50;99.90;;;;;;5087091;28;20247;-69
2022/06/11 01:35:24;;;;;;;3.45;3.15;;;17.40;99.90;;;;;;5068333;28;20698;-70
2022/06/11 01:37:54;;;;;;;3.47;3.17;;;17.40;99.90;;;;;;5073553;28;20207;-70
2022/06/11 01:40:32;;;;;;;3.30;3.00;;;17.30;99.90;;;;;;5089607;28;20209;-70
2022/06/11 01:43:04;;;;;;;5.47;3.10;;;17.30;99.90;;;;;;5097304;28;20208;-70
2022/06/11 01:45:35;;;;;;;4.77;3.27;;;17.20;99.90;;;;;;5078586;28;20202;-70
2022/06/11 01:48:05;;;;;;;5.03;4.00;;;17.10;99.90;;;;;;5077057;28;20213;-70
2022/06/11 01:50:38;;;;;;;3.40;3.10;;;17.10;99.90;;;;;;5079413;28;20205;-70
2022/06/11 01:53:40;;;;;;;3.60;3.10;;;17.00;99.90;;;;;;5084656;28;20212;-70
2022/06/11 01:56:28;;;;;;;3.17;2.97;;;16.90;99.90;;;;;;5076963;28;20224;-70
2022/06/11 01:59:16;;;;;;;2.87;2.57;;;16.90;99.90;;;;;;5095021;28;20208;-70
2022/06/11 02:02:01;;;;;;;2.90;2.70;;;16.90;99.90;;;;;;5076914;28;20654;-70
2022/06/11 02:04:47;;;;;;;3.15;2.85;;;16.80;99.90;;;;;;5076929;28;20646;-70
2022/06/11 02:07:20;;;;;;;3.00;2.70;;;16.80;99.90;;;;;;5091331;28;20205;-69
2022/06/11 02:09:56;;;;;;;4.17;3.07;;;16.70;99.90;;;;;;5080353;28;20201;-70
2022/06/11 02:12:28;;;;;;;4.40;2.77;;;16.70;99.90;;;;;;5077282;28;20200;-70
2022/06/11 02:15:00;;;;;;;2.50;2.30;;;16.70;99.90;;;;;;5092391;28;20228;-69
2022/06/11 02:17:31;;;;;;;2.60;2.33;;;16.80;99.90;;;;;;5093377;28;20205;-70
2022/06/11 02:20:02;;;;;;;3.37;3.03;;;16.70;99.90;;;;;;5076548;28;20208;-70
2022/06/11 02:22:35;;;;;;;5.80;3.00;;;16.70;99.90;;;;;;5076218;28;20207;-70
2022/06/11 02:25:09;;;;;;;2.67;2.47;;;16.80;99.90;;;;;;5074995;28;20723;-70
2022/06/11 02:27:37;;;;;;;2.63;2.43;;;16.70;99.90;;;;;;5076378;28;20569;-70
2022/06/11 02:30:07;;;;;;;4.87;3.00;;;16.70;99.90;;;;;;5079167;28;20734;-70
2022/06/11 02:32:35;;;;;;;2.50;2.30;;;16.70;99.90;;;;;;5093239;28;20200;-70
2022/06/11 02:35:07;;;;;;;2.60;2.27;;;16.70;99.90;;;;;;5091759;28;20285;-71
2022/06/11 02:37:39;;;;;;;2.70;2.40;;;16.70;99.90;;;;;;5076693;28;20212;-71
2022/06/11 02:40:10;;;;;;;3.00;2.53;;;16.70;99.90;;;;;;5075892;28;20201;-71
2022/06/11 02:42:38;;;;;;;2.83;2.47;;;16.60;99.90;;;;;;5075913;28;20201;-69
2022/06/11 02:45:06;;;;;;;3.23;2.60;;;16.70;99.90;;;;;;5075771;28;20670;-71
2022/06/11 02:47:34;;;;;;;2.70;2.50;;;16.70;99.90;;;;;;5074627;28;20726;-71
2022/06/11 02:50:01;;;;;;;4.23;2.90;;;16.60;99.90;;;;;;5075645;28;20209;-70
2022/06/11 02:52:28;;;;;;;5.10;2.70;;;16.70;99.90;;;;;;5078479;28;20577;-70
2022/06/11 02:54:54;;;;;;;3.10;2.80;;;16.60;99.90;;;;;;5082260;28;20232;-70
2022/06/11 02:57:24;;;;;;;3.70;2.70;;;16.60;99.90;;;;;;5078785;28;20584;-70
2022/06/11 02:59:52;;;;;;;5.60;2.93;;;16.60;99.90;;;;;;5074732;28;20205;-70
2022/06/11 03:02:20;;;;;;;7.00;2.50;;;16.70;99.90;;;;;;5087794;28;20208;-70
2022/06/11 03:04:48;;;;;;;4.10;2.50;;;16.70;99.90;;;;;;5074888;28;20202;-69
2022/06/11 03:07:16;;;;;;;3.37;2.93;;;16.70;99.90;;;;;;5074981;28;20229;-69
2022/06/11 03:09:43;;;;;;;3.00;2.70;;;16.80;99.90;;;;;;5074834;28;20205;-69
2022/06/11 03:12:12;;;;;;;3.37;2.90;;;16.80;99.90;;;;;;5075389;28;20201;-70
2022/06/11 03:14:41;;;;;;;2.73;2.50;;;16.90;99.90;;;;;;5075857;28;20244;-69
2022/06/11 03:17:09;;;;;;;3.93;2.67;;;16.90;99.90;;;;;;5088027;28;20209;-70
2022/06/11 03:19:37;;;;;;;2.67;2.47;;;17.00;99.90;;;;;;5085233;28;20585;-69
2022/06/11 03:22:05;;;;;;;5.20;2.60;;;17.10;99.90;;;;;;5074182;28;20214;-70
2022/06/11 03:24:32;;;;;;;4.17;2.70;;;17.10;99.90;;;;;;5074582;28;20209;-69
2022/06/11 03:26:59;;;;;;;2.87;2.50;;;17.20;99.90;;;;;;5074434;28;20209;-69
2022/06/11 03:29:27;;;;;;;4.03;3.10;;;17.30;99.90;;;;;;5074535;28;20228;-69
2022/06/11 03:31:54;;;;;;;2.30;2.17;;;17.40;99.90;;;;;;5088267;28;20213;-69
2022/06/11 03:34:21;;;;;;;2.97;2.28;;;17.40;99.90;;;;;;5074402;28;20209;-69
2022/06/11 03:36:52;;;;;;;2.60;2.40;;;17.50;99.90;;;;;;5074507;28;20296;-69
2022/06/11 03:39:21;;;;;;;3.65;2.08;;;17.50;99.90;;;;;;5082208;28;20610;-69
2022/06/11 03:41:48;;;;;;;2.25;2.00;;;17.60;99.90;;;;;;5079432;28;20212;-68
2022/06/11 03:44:15;;;;;;;3.77;2.30;;;17.60;99.90;;;;;;5075155;28;20201;-70
2022/06/11 03:46:42;;;;;;;1.98;1.80;;;17.70;99.90;;;;;;5074363;28;20202;-70
2022/06/11 03:49:09;;;;;;;2.58;1.83;;;17.70;99.90;;;;;;5079061;28;20202;-70
2022/06/11 03:51:36;;;;;;;2.13;1.85;;;17.80;99.90;;;;;;5075397;28;20216;-70
2022/06/11 03:54:04;;;;;;;2.10;1.90;;;17.80;99.90;;;;;;5079551;28;20201;-69
2022/06/11 03:56:32;;;;;;;2.92;2.22;;;17.90;99.90;;;;;;5074907;28;20224;-70
2022/06/11 03:58:59;;;;;;;2.42;2.22;;;17.90;99.90;;;;;;5090483;28;20216;-69
2022/06/11 04:01:28;;;;;;;2.75;1.90;;;18.00;99.90;;;;;;5084566;28;20205;-69
2022/06/11 04:03:58;;;;;;;1.77;1.67;;;18.00;99.90;;;;;;5079258;28;20209;-69
2022/06/11 04:06:27;;;;;;;2.03;1.40;;;18.10;99.90;;;;;;5073940;28;20213;-69
2022/06/11 04:08:54;;;;;;;1.95;1.60;;;18.10;99.90;;;;;;5073498;28;20304;-69
2022/06/11 04:11:22;;;;;;;2.08;1.88;;;18.20;99.90;;;;;;5074940;28;20205;-69
2022/06/11 04:13:53;;;;;;;1.70;1.60;;;18.30;99.90;;;;;;5074067;28;20205;-70
2022/06/11 04:16:27;;;;;;;1.77;1.55;;;18.30;99.90;;;;;;5093510;28;20235;-70
2022/06/11 04:18:55;;;;;;;1.52;1.42;;;18.40;99.90;;;;;;5093989;28;20633;-70
2022/06/11 04:21:23;;;;;;;3.47;1.90;;;18.40;99.90;;;;;;5079485;28;20211;-70
2022/06/11 04:23:52;;;;;;;1.90;1.75;;;18.40;99.90;;;;;;5072825;28;20680;-70
2022/06/11 04:26:21;;;;;;;1.80;1.70;;;18.50;99.90;;;;;;5074228;28;20205;-70
2022/06/11 04:28:50;;;;;;;1.50;1.40;;;18.50;99.90;;;;;;5074862;28;20252;-71
2022/06/11 04:31:18;;;;;;;3.40;1.40;;;18.50;99.90;;;;;;5076084;28;20209;-70
2022/06/11 04:33:47;;;;;;;1.75;1.50;;;18.60;99.90;;;;;;5075156;28;20201;-69
2022/06/11 04:36:16;;;;;;;1.40;1.30;;;18.60;99.90;;;;;;5081698;28;20236;-69
2022/06/11 04:38:43;;;;;;;1.38;1.25;;;18.70;99.90;;;;;;5074636;28;20201;-69
2022/06/11 04:41:11;;;;;;;1.50;1.40;;;18.70;99.90;;;;;;5083919;28;20575;-70
2022/06/11 04:43:38;;;;;;;3.05;1.50;;;18.70;99.90;;;;;;5079234;28;20588;-69
2022/06/11 04:46:06;;;;;;;1.40;1.30;;;18.80;99.90;;;;;;5074504;28;20563;-69
2022/06/11 04:48:33;;;;;;;1.25;1.15;;;18.80;99.90;;;;;;5079246;28;20223;-70
2022/06/11 04:51:01;;;;;;;3.38;1.50;;;18.80;99.90;;;;;;5081182;28;20223;-71
2022/06/11 04:53:28;;;;;;;1.45;1.15;;;18.90;99.90;;;;;;5076483;28;20207;-70
2022/06/11 04:55:54;;;;;;;2.17;1.20;;;19.00;99.90;;;;;;5084254;28;20219;-70
2022/06/11 04:58:22;;;;;;;1.52;1.40;;;19.00;99.90;;;;;;5073475;28;20209;-69
2022/06/11 05:00:49;;;;;;;1.35;1.27;;;19.10;99.90;;;;;;5076693;28;20222;-69
2022/06/11 05:03:17;;;;;;;3.38;2.00;;;19.20;99.90;;;;;;5095573;28;20205;-69
2022/06/11 05:05:44;;;;;;;2.38;1.90;;;19.10;99.90;;;;;;5093186;28;20602;-69
2022/06/11 05:08:12;;;;;;;1.52;1.42;;;19.20;99.90;;;;;;5080708;28;20209;-69
2022/06/11 05:10:40;;;;;;;1.30;1.20;;;19.20;99.90;;;;;;5089170;28;20209;-69
2022/06/11 05:13:08;;;;;;;1.75;1.45;;;19.30;99.90;;;;;;5084736;28;20209;-69
2022/06/11 05:15:38;;;;;;;1.90;1.13;;;19.30;99.90;;;;;;5088748;28;20604;-70
2022/06/11 05:18:05;;;;;;;1.95;1.50;;;19.30;99.90;;;;;;5086190;28;20662;-73
2022/06/11 05:20:33;;;;;;;2.53;1.60;;;19.30;99.90;;;;;;5083799;28;20211;-74
2022/06/11 05:23:00;;;;;;;2.35;1.40;;;19.40;99.90;;;;;;5090784;28;20234;-75
2022/06/11 05:25:27;;;;;;;2.33;1.45;;;19.30;99.90;;;;;;5087119;28;20224;-74
2022/06/11 05:27:54;;;;;;;2.13;1.27;;;19.30;99.90;;;;;;5092962;28;20220;-75
2022/06/11 05:30:23;;;;;;;1.58;1.45;;;19.40;99.90;;;;;;5085209;28;20232;-71
2022/06/11 05:32:50;;;;;;;1.33;1.23;;;19.30;99.90;;;;;;5090135;28;20224;-70
2022/06/11 05:35:19;;;;;;;1.40;1.30;;;19.40;99.90;;;;;;5086626;28;20213;-70
2022/06/11 05:37:49;;;;;;;1.55;1.40;;;19.40;99.90;;;;;;5090382;28;20204;-70
2022/06/11 05:40:19;;;;;;;2.65;2.38;;;19.50;99.90;;;;;;5079429;28;20224;-70
2022/06/11 05:42:48;;;;;;;2.92;2.45;;;19.50;99.90;;;;;;5095100;28;20550;-70
2022/06/11 05:45:17;;;;;;;3.10;2.15;;;19.60;99.90;;;;;;5096073;28;20220;-70
2022/06/11 05:47:44;;;;;;;2.67;2.17;;;19.60;99.90;;;;;;5096239;28;20671;-71
2022/06/11 05:50:15;;;;;;;2.40;1.90;;;19.50;99.90;;;;;;5096379;28;20247;-70
2022/06/11 05:52:45;;;;;;;2.33;1.90;;;19.50;99.90;;;;;;5093364;28;20207;-70
2022/06/11 05:55:15;;;;;;;2.40;2.10;;;19.50;99.90;;;;;;5093809;28;20209;-71
2022/06/11 05:57:44;;;;;;;5.88;2.17;;;19.60;99.90;;;;;;5082218;28;20203;-70
2022/06/11 06:00:15;;;;;;;2.67;1.73;;;19.60;99.90;;;;;;5091209;28;20217;-69
2022/06/11 06:02:43;;;;;;;3.50;2.20;;;19.70;99.90;;;;;;5082497;28;20658;-68
2022/06/11 06:05:11;;;;;;;3.75;2.33;;;19.70;99.90;;;;;;5095981;28;20541;-69
2022/06/11 06:07:38;;;;;;;4.03;2.15;;;19.70;99.90;;;;;;5084273;28;20586;-68
2022/06/11 06:10:05;;;;;;;2.72;1.83;;;19.70;99.90;;;;;;5076663;28;20212;-69
2022/06/11 06:12:34;;;;;;;2.63;1.75;;;19.80;99.90;;;;;;5092388;28;20652;-69
2022/06/11 06:15:05;;;;;;;1.92;1.58;;;19.80;99.90;;;;;;5095637;28;20240;-69
2022/06/11 06:17:32;;;;;;;3.00;1.90;;;19.80;99.90;;;;;;5084101;28;20247;-69
2022/06/11 06:19:59;;;;;;;3.85;1.45;;;19.90;99.90;;;;;;5077962;28;20215;-69
2022/06/11 06:22:25;;;;;;;2.10;1.90;;;19.90;99.90;;;;;;5084181;28;20645;-69
2022/06/11 06:24:52;;;;;;;2.00;1.50;;;19.90;99.90;;;;;;5078195;28;20592;-70
2022/06/11 06:27:19;;;;;;;2.80;1.70;;;19.90;99.90;;;;;;5079497;28;20573;-70
2022/06/11 06:29:47;;;;;;;2.17;1.88;;;19.90;99.90;;;;;;5074629;28;20221;-69
2022/06/11 06:32:14;;;;;;;2.22;1.70;;;19.90;99.90;;;;;;5076565;28;20205;-69
2022/06/11 06:34:41;;;;;;;3.22;2.20;;;19.90;99.90;;;;;;5082835;28;20627;-69
2022/06/11 06:37:07;;;;;;;5.13;2.00;;;20.00;99.90;;;;;;5084010;28;20229;-69
2022/06/11 06:39:34;;;;;;;2.38;2.15;;;20.00;99.90;;;;;;5094270;28;20211;-69
2022/06/11 06:42:01;;;;;;;2.50;1.95;;;20.20;99.90;;;;;;5094431;28;20219;-69
2022/06/11 06:44:28;;;;;;;2.17;2.00;;;20.30;99.90;;;;;;5094668;28;20207;-70
2022/06/11 06:46:57;;;;;;;2.40;1.80;;;20.40;99.90;;;;;;5092872;28;20212;-70
2022/06/11 06:49:23;;;;;;;3.08;1.98;;;20.40;99.90;;;;;;5079716;28;20581;-70
2022/06/11 06:51:50;;;;;;;2.90;1.60;;;20.50;99.90;;;;;;5075074;28;20205;-68
2022/06/11 06:54:17;;;;;;;1.80;1.70;;;20.50;99.90;;;;;;5094799;28;20657;-69
2022/06/11 06:56:44;;;;;;;2.05;1.85;;;20.50;99.90;;;;;;5087947;28;20213;-71
2022/06/11 06:59:11;;;;;;;4.45;1.67;;;20.60;99.90;;;;;;5088026;28;20217;-70
2022/06/11 07:01:39;;;;;;;1.65;1.55;;;20.60;99.90;;;;;;5076295;28;20213;-70
2022/06/11 07:04:07;;;;;;;4.72;2.13;;;20.80;99.90;;;;;;5081599;28;20209;-69
2022/06/11 07:06:35;;;;;;;3.00;1.85;;;20.90;99.90;;;;;;5085907;28;20208;-70
2022/06/11 07:09:02;;;;;;;3.03;2.13;;;21.00;99.90;;;;;;5088381;28;20667;-70
2022/06/11 07:11:29;;;;;;;2.38;1.92;;;21.10;99.90;;;;;;5073995;28;20601;-71
2022/06/11 07:13:56;;;;;;;1.77;1.52;;;21.10;99.90;;;;;;5088942;28;20211;-72
2022/06/11 07:16:30;;;;;;;8.00;4.22;;;21.10;99.90;;;;;;5074078;28;20300;-71
2022/06/11 07:19:00;;;;;;;2.97;1.73;;;21.00;99.90;;;;;;5094313;28;20575;-71
2022/06/11 07:21:31;;;;;;;9.30;2.17;;;21.00;99.90;;;;;;5087889;28;20610;-71
2022/06/11 07:24:01;;;;;;;2.67;1.45;;;21.00;99.90;;;;;;5078421;28;20208;-72
2022/06/11 07:26:33;;;;;;;1.60;1.50;;;21.00;99.90;;;;;;5076540;28;20220;-73
2022/06/11 07:29:06;;;;;;;1.90;1.63;;;21.00;99.90;;;;;;5078010;28;20312;-72
2022/06/11 07:31:33;;;;;;;2.83;1.30;;;21.00;99.90;;;;;;5092020;28;20204;-71
2022/06/11 07:34:01;;;;;;;2.28;1.52;;;21.20;99.90;;;;;;5091716;28;20640;-74
2022/06/11 07:36:29;;;;;;;1.52;1.20;;;21.30;99.90;;;;;;5093126;28;20212;-71
2022/06/11 07:38:56;;;;;;;2.13;1.50;;;21.50;99.90;;;;;;5092604;28;20240;-72
2022/06/11 07:41:23;;;;;;;1.27;1.10;;;21.60;99.90;;;;;;5094207;28;20584;-71
2022/06/11 07:43:50;;;;;;;1.67;1.58;;;21.70;99.90;;;;;;5092492;28;20207;-72
2022/06/11 07:46:18;;;;;;;2.90;1.40;;;21.80;99.90;;;;;;5087596;28;20652;-73
2022/06/11 07:48:45;;;;;;;3.70;2.03;;;21.80;99.90;;;;;;5075758;28;20224;-72
2022/06/11 07:51:12;;;;;;;2.03;1.63;;;21.90;99.90;;;;;;5084604;28;20721;-74
2022/06/11 07:53:40;;;;;;;2.92;1.30;;;22.10;99.90;;;;;;5080574;28;20607;-74
2022/06/11 07:56:07;;;;;;;2.83;1.33;;;22.10;99.80;;;;;;5079370;28;20227;-72
2022/06/11 07:58:34;;;;;;;1.77;1.40;;;22.10;99.90;;;;;;5084884;28;20572;-76
2022/06/11 08:01:02;;;;;;;1.52;1.42;;;22.10;99.90;;;;;;5081709;28;20208;-72
2022/06/11 08:03:31;;;;;;;2.95;1.40;;;22.10;99.70;;;;;;5088571;28;20212;-72
2022/06/11 08:05:58;;;;;;;3.35;1.60;;;22.30;99.70;;;;;;5084465;28;20196;-72
2022/06/11 08:08:25;;;;;;;2.60;1.42;;;22.60;99.80;;;;;;5091648;28;20200;-71
2022/06/11 08:10:53;;;;;;;2.80;1.30;;;22.80;98.70;;;;;;5086778;28;20216;-69
2022/06/11 08:13:20;;;;;;;3.05;1.20;;;22.90;97.20;;;;;;5090060;28;20208;-72
2022/06/11 08:15:49;;;;;;;1.75;1.20;;;22.90;96.50;;;;;;5087081;28;20752;-70
2022/06/11 08:18:17;;;;;;;1.75;1.27;;;23.00;96.30;;;;;;5072749;28;20205;-72
2022/06/11 08:20:45;;;;;;;2.10;1.65;;;23.10;95.90;;;;;;5078572;28;20653;-70
2022/06/11 08:23:12;;;;;;;1.85;1.17;;;23.10;95.60;;;;;;5077746;28;20311;-71
2022/06/11 08:25:39;;;;;;;1.05;0.85;;;23.20;95.10;;;;;;5077419;28;20629;-73
2022/06/11 08:28:08;;;;;;;1.10;1.00;;;23.30;95.10;;;;;;5075590;28;20201;-71
2022/06/11 08:30:35;;;;;;;1.13;1.10;;;23.30;94.80;;;;;;5080161;28;20803;-71
2022/06/11 08:33:02;;;;;;;1.35;1.10;;;23.40;94.30;;;;;;5081032;28;20212;-72
2022/06/11 08:35:31;;;;;;;1.02;0.90;;;23.50;93.10;;;;;;5081469;28;20281;-70
2022/06/11 08:37:58;;;;;;;1.27;1.17;;;23.60;92.30;;;;;;5072411;28;20312;-71
2022/06/11 08:40:30;;;;;;;4.38;1.50;;;23.70;91.90;;;;;;5074790;28;20205;-72
2022/06/11 08:43:00;;;;;;;1.80;1.25;;;23.80;91.70;;;;;;5077845;28;20597;-71
2022/06/11 08:45:36;;;;;;;4.85;1.38;;;23.90;91.80;;;;;;5073776;28;20201;-77
2022/06/11 08:48:13;;;;;;;2.85;1.17;;;24.10;91.80;;;;;;5080110;28;20200;-73
2022/06/11 08:50:48;;;;;;;2.42;0.95;;;24.20;91.20;;;;;;5083209;28;20300;-73
2022/06/11 08:53:17;;;;;;;1.73;0.80;;;24.20;90.60;;;;;;5083190;28;20203;-71
2022/06/11 08:55:44;;;;;;;2.65;1.00;;;24.20;88.40;;;;;;5085907;28;20201;-71
2022/06/11 08:58:22;;;;;;;1.67;1.30;;;24.10;85.70;;;;;;5092486;28;20243;-71
2022/06/11 09:00:59;;;;;;;1.20;1.10;;;24.10;84.50;;;;;;5086099;28;20196;-72
2022/06/11 09:03:37;;;;;;;2.03;1.30;;;24.00;82.20;;;;;;5085403;28;20647;-70
2022/06/11 09:06:28;;;;;;;1.35;1.25;;;24.00;82.30;;;;;;5093935;28;20215;-72
2022/06/11 09:09:04;;;;;;;2.55;1.10;;;24.00;83.60;;;;;;5093013;28;20209;-70
2022/06/11 09:11:49;;;;;;;4.10;1.10;;;24.10;84.80;;;;;;5082844;28;20203;-71
2022/06/11 09:14:45;;;;;;;2.63;0.95;;;24.30;86.00;;;;;;5085243;28;20232;-70
2022/06/11 09:17:35;;;;;;;2.58;1.05;;;24.50;85.50;;;;;;5083462;28;20213;-71
2022/06/11 09:20:20;;;;;;;1.30;0.85;;;24.70;84.40;;;;;;5092928;28;20204;-70
2022/06/11 09:23:22;;;;;;;1.85;1.08;;;24.80;80.90;;;;;;5077613;28;20210;-70
2022/06/11 09:26:00;;;;;;;1.40;1.30;;;24.80;79.40;;;;;;5075841;28;20855;-69
2022/06/11 09:28:36;;;;;;;2.60;1.10;;;25.00;79.10;;;;;;5077381;28;20315;-71
2022/06/11 09:31:10;;;;;;;2.70;1.05;;;25.00;78.80;;;;;;5074946;28;20661;-69
2022/06/11 09:33:43;;;;;;;1.98;1.30;;;25.20;79.70;;;;;;5088584;28;20283;-71
2022/06/11 09:36:16;;;;;;;0.70;0.50;;;25.40;79.40;;;;;;5086774;28;20208;-71
2022/06/11 09:38:57;;;;;;;1.00;0.93;;;25.50;79.30;;;;;;5076922;28;20600;-71
2022/06/11 09:41:34;;;;;;;1.00;0.90;;;25.70;76.80;;;;;;5094275;28;20208;-71
2022/06/11 09:44:14;;;;;;;1.58;0.80;;;25.80;75.10;;;;;;5092005;28;20526;-72
2022/06/11 09:46:49;;;;;;;1.15;0.80;;;26.00;73.60;;;;;;5086901;28;20199;-69
2022/06/11 09:49:25;;;;;;;1.13;0.80;;;26.20;71.80;;;;;;5092696;28;20237;-71
2022/06/11 09:51:58;;;;;;;0.98;0.80;;;26.40;69.60;;;;;;5093103;28;20223;-72
2022/06/11 09:54:39;;;;;;;4.70;0.77;;;26.60;68.90;;;;;;5087811;28;20192;-70
2022/06/11 09:57:22;;;;;;;3.25;0.80;;;26.70;68.50;;;;;;5092318;28;20208;-70
2022/06/11 09:59:55;;;;;;;1.83;0.93;;;26.80;68.20;;;;;;5095667;28;20649;-69
2022/06/11 10:02:31;;;;;;;1.15;1.05;;;26.80;68.40;;;;;;5090441;28;20219;-69
2022/06/11 10:05:01;;;;;;;1.17;0.80;;;26.80;68.20;;;;;;5095786;28;20239;-71
2022/06/11 10:07:33;;;;;;;1.42;0.90;;;26.80;67.90;;;;;;5089907;28;20205;-69
2022/06/11 10:10:09;;;;;;;1.48;0.82;;;26.80;67.10;;;;;;5095971;28;20200;-70
2022/06/11 10:12:41;;;;;;;1.80;0.70;;;27.00;66.10;;;;;;5089526;28;20208;-70
2022/06/11 10:15:15;;;;;;;1.20;0.60;;;27.10;64.50;;;;;;5089593;28;20241;-70
2022/06/11 10:17:52;;;;;;;0.90;0.90;;;27.30;61.50;;;;;;5077650;28;20670;-71
2022/06/11 10:20:24;;;;;;;1.33;0.93;;;27.50;59.40;;;;;;5086604;28;20584;-69
2022/06/11 10:22:57;;;;;;;0.70;0.70;;;27.50;57.90;;;;;;5074575;28;20452;-71
2022/06/11 10:25:30;;;;;;;1.38;0.93;;;27.40;56.80;;;;;;5085257;28;20208;-71
2022/06/11 10:28:01;;;;;;;1.63;0.88;;;27.40;56.80;;;;;;5078509;28;20768;-70
2022/06/11 10:30:45;;;;;;;1.55;0.70;;;27.30;56.70;;;;;;5076519;28;20224;-70
2022/06/11 10:33:21;;;;;;;0.98;0.60;;;27.20;56.40;;;;;;5073770;28;20201;-70
2022/06/11 10:35:56;;;;;;;1.10;0.77;;;27.10;56.30;;;;;;5078741;28;20249;-71
2022/06/11 10:38:42;;;;;;;1.13;0.70;;;27.00;55.90;;;;;;5075062;28;20612;-70
2022/06/11 10:41:15;;;;;;;1.27;0.73;;;27.10;56.60;;;;;;5073981;28;20205;-71
2022/06/11 10:43:47;;;;;;;1.17;1.00;;;27.10;57.10;;;;;;5074587;28;20511;-71
2022/06/11 10:46:14;;;;;;;1.63;1.15;;;27.30;57.60;;;;;;5075722;28;20565;-71
2022/06/11 10:48:41;;;;;;;1.20;1.10;;;27.40;58.10;;;;;;5075649;28;20569;-70
2022/06/11 10:51:16;;;;;;;2.67;1.20;;;27.50;58.00;;;;;;5074809;28;20216;-70
2022/06/11 10:53:56;;;;;;;3.80;1.33;;;27.60;57.50;;;;;;5078543;28;20192;-70
2022/06/11 10:56:30;;;;;;;1.58;0.73;;;27.60;57.50;;;;;;5074790;28;20201;-70
2022/06/11 10:59:01;;;;;;;1.00;1.00;;;27.70;57.70;;;;;;5077940;28;20215;-70
2022/06/11 11:01:33;;;;;;;0.77;0.75;;;27.80;57.30;;;;;;5078920;28;20581;-70
2022/06/11 11:04:27;;;;;;;0.93;0.70;;;28.00;56.60;;;;;;5074462;28;20654;-70
2022/06/11 11:07:10;;;;;;;2.78;0.88;;;28.00;54.70;;;;;;5073818;28;20591;-69
2022/06/11 11:09:37;;;;;;;0.95;0.80;;;28.00;53.70;;;;;;5074124;28;20197;-70
2022/06/11 11:12:07;;;;;;;1.98;1.30;;;27.90;54.30;;;;;;5081572;28;20681;-71
2022/06/11 11:14:38;;;;;;;2.38;1.17;;;27.80;54.50;;;;;;5074035;28;20685;-71
2022/06/11 11:17:07;;;;;;;1.60;1.10;;;27.60;55.30;;;;;;5087059;28;20209;-71
2022/06/11 11:19:40;;;;;;;1.10;0.95;;;27.60;56.10;;;;;;5074325;28;20577;-70
2022/06/11 11:22:17;;;;;;;1.25;0.93;;;27.70;56.90;;;;;;5074905;28;20216;-70
2022/06/11 11:24:47;;;;;;;1.40;1.00;;;27.80;57.60;;;;;;5073810;28;21044;-70
2022/06/11 11:27:18;;;;;;;1.88;1.20;;;27.80;57.50;;;;;;5074212;28;20204;-71
2022/06/11 11:29:51;;;;;;;2.38;1.45;;;27.90;57.40;;;;;;5075918;28;20232;-71
2022/06/11 11:32:30;;;;;;;1.95;1.13;;;27.90;57.40;;;;;;5075049;28;20201;-70
2022/06/11 11:34:57;;;;;;;1.70;1.23;;;27.80;57.50;;;;;;5075245;28;20205;-70
2022/06/11 11:37:32;;;;;;;1.48;1.20;;;27.80;57.60;;;;;;5082983;28;20232;-70
2022/06/11 11:40:02;;;;;;;3.15;1.27;;;27.70;57.90;;;;;;5078535;28;20200;-71
2022/06/11 11:42:36;;;;;;;2.15;0.95;;;27.70;58.30;;;;;;5080168;28;20843;-69
2022/06/11 11:45:20;;;;;;;0.77;0.77;;;27.70;58.30;;;;;;5085959;28;20209;-69
2022/06/11 11:47:49;;;;;;;1.90;1.30;;;27.70;57.80;;;;;;5084195;28;20205;-69
2022/06/11 11:50:25;;;;;;;1.15;1.05;;;27.80;57.80;;;;;;5086998;28;20217;-68
2022/06/11 11:53:00;;;;;;;1.75;1.25;;;27.80;58.20;;;;;;5081006;28;20204;-69
2022/06/11 11:55:30;;;;;;;1.20;0.88;;;27.80;58.40;;;;;;5089054;28;20208;-69
2022/06/11 11:58:01;;;;;;;4.07;1.20;;;27.80;58.90;;;;;;5082383;28;20221;-69
2022/06/11 12:00:31;;;;;;;1.30;1.20;;;27.90;59.20;;;;;;5077633;28;20201;-70
2022/06/11 12:03:03;;;;;;;2.72;1.02;;;27.90;59.20;;;;;;5076017;28;20209;-70
2022/06/11 12:05:35;;;;;;;1.02;1.02;;;28.00;59.00;;;;;;5084359;28;20517;-69
2022/06/11 12:08:13;;;;;;;1.27;1.17;;;28.10;59.10;;;;;;5088148;28;20652;-70
2022/06/11 12:10:46;;;;;;;5.05;1.20;;;28.10;59.20;;;;;;5091916;28;20200;-68
2022/06/11 12:13:24;;;;;;;2.08;1.20;;;28.20;59.10;;;;;;5080981;28;20216;-69
2022/06/11 12:15:55;;;;;;;1.25;1.10;;;28.20;59.10;;;;;;5085396;28;20232;-69
2022/06/11 12:18:28;;;;;;;3.65;1.25;;;28.30;59.40;;;;;;5078239;28;20217;-69
2022/06/11 12:20:57;;;;;;;4.15;1.40;;;28.20;59.70;;;;;;5074401;28;20201;-69
2022/06/11 12:23:31;;;;;;;3.28;1.20;;;28.20;60.70;;;;;;5071290;28;20209;-69
2022/06/11 12:26:02;;;;;;;4.97;1.70;;;28.20;60.40;;;;;;5081281;28;20208;-70
2022/06/11 12:28:33;;;;;;;0.90;0.90;;;28.20;60.50;;;;;;5076094;28;20197;-70
2022/06/11 12:30:59;;;;;;;3.33;0.80;;;28.20;59.90;;;;;;5074009;28;20208;-70
2022/06/11 12:33:28;;;;;;;0.82;0.80;;;28.20;59.60;;;;;;5071315;28;20559;-71
2022/06/11 12:36:05;;;;;;;1.00;0.90;;;28.30;59.80;;;;;;5082769;28;20204;-69
2022/06/11 12:38:44;;;;;;;2.60;1.17;;;28.40;59.80;;;;;;5072280;28;20286;-69
2022/06/11 12:41:18;;;;;;;8.68;2.00;;;28.40;59.90;;;;;;5074888;28;20204;-69
2022/06/11 12:43:52;;;;;;;5.65;1.70;;;28.50;61.20;;;;;;5075943;28;20230;-67
2022/06/11 12:46:30;;;;;;;2.08;1.08;;;28.50;60.50;;;;;;5079262;28;20206;-70
2022/06/11 12:49:10;;;;;;;2.38;1.30;;;28.50;60.50;;;;;;5085934;28;20192;-70
2022/06/11 12:51:50;;;;;;;1.08;0.98;;;28.30;60.10;;;;;;5079735;28;20205;-69
2022/06/11 12:54:25;;;;;;;0.85;0.80;;;28.20;60.30;;;;;;5088920;28;20200;-71
2022/06/11 12:57:08;;;;;;;2.50;1.00;;;28.20;60.30;;;;;;5073449;28;20561;-70
2022/06/11 12:59:55;;;;;;;1.98;1.10;;;28.20;60.30;;;;;;5079723;28;20209;-69
2022/06/11 13:02:33;;;;;;;1.90;1.38;;;28.20;60.40;;;;;;5075307;28;20671;-70
2022/06/11 13:05:31;;;;;;;1.42;1.10;;;28.10;60.80;;;;;;5073448;28;20551;-70
2022/06/11 13:08:12;;;;;;;3.55;1.20;;;28.10;60.90;;;;;;5068569;28;20208;-70
2022/06/11 13:10:44;;;;;;;3.33;1.02;;;28.10;60.30;;;;;;5076815;28;20544;-70